Sea Adventure 80 — WDF3541 — position and weather

sailwx.info

Track history (hours):
 
Tides and Currents Weather Stations Pressure Air Temp Water Temp Dewpoint Dewpoint Depression Visibility Wind Speed Wind Dir Waves Ship Positions

Sea Adventure 80

Owner: McLangLLC, San Diego, CA. More information available from US FCC via Universal Licensing System and Coast Guard Vessel Documentation Center.

Last reported at 2018-Jun-15 00:04 UTC. Time now 2018-Jun-25 01:44 UTC.
Position N 32°08' W 117°48'.
Warning: this ship's position is 10 days out of date.

Length 22 m.

Type: Wing in ground effect craft. MMSI: 367441140.

Date/timePositionNaut miles runAvg speedWind from/ knotsBaromVisibWave heightAir tempDewpointWater temp
2018-Jun-15 00:04N 32°08' W 117°48'0 7.7
2018-Jun-15 00:00N 32°08' W 117°48'2 3.9
2018-Jun-14 23:27N 32°08' W 117°51'1 0.5
2018-Jun-14 21:29N 32°09' W 117°51'1 1.9
2018-Jun-14 20:54N 32°09' W 117°52'3 1.6
2018-Jun-14 19:06N 32°12' W 117°50'1 2.4
2018-Jun-14 18:39N 32°12' W 117°49'0 2.3
2018-Jun-14 18:29N 32°12' W 117°48'3 3.2
2018-Jun-14 17:31N 32°12' W 117°45'0 0.0
2018-Jun-14 17:30N 32°12' W 117°45'1 1.3
2018-Jun-14 16:20N 32°13' W 117°43'4 1.0
2018-Jun-14 12:33N 32°13' W 117°39'0 2.4
2018-Jun-14 12:29N 32°13' W 117°39'1 1.0
2018-Jun-14 11:13N 32°14' W 117°40'2 0.4
2018-Jun-14 05:40N 32°15' W 117°37'0 0.3
2018-Jun-14 05:27N 32°15' W 117°37'1 0.6
2018-Jun-14 03:20N 32°15' W 117°39'4 0.8
2018-Jun-13 22:22N 32°16' W 117°35'1 2.1
2018-Jun-13 22:00N 32°16' W 117°35'0 1.0
2018-Jun-13 21:30N 32°16' W 117°35'11 5.2
2018-Jun-13 19:19N 32°14' W 117°49'2 5.3
2018-Jun-13 18:57N 32°14' W 117°51'3 3.4
2018-Jun-13 18:00N 32°11' W 117°50'0 0.2
2018-Jun-13 17:30N 32°11' W 117°50'1 0.9
2018-Jun-13 16:42N 32°10' W 117°51'1 5.1
2018-Jun-13 16:25N 32°11' W 117°52'1 0.7
2018-Jun-13 14:48N 32°11' W 117°51'1 3.5
2018-Jun-13 14:28N 32°12' W 117°50'1 2.2
2018-Jun-13 14:00N 32°11' W 117°50'0 0.3
2018-Jun-13 13:30N 32°11' W 117°50'0 0.2
2018-Jun-13 13:00N 32°11' W 117°50'  
2018-Jun-09 23:52N 32°01' W 117°35'1 3.1
2018-Jun-09 23:29N 31°60' W 117°35'121 5.5
2018-Jun-09 01:31N 30°02' W 117°03'0 4.8
2018-Jun-09 01:30N 30°02' W 117°03'  
Track history (hours):
 
Tides and Currents Weather Stations Pressure Air Temp Water Temp Dewpoint Dewpoint Depression Visibility Wind Speed Wind Dir Waves Ship Positions

Sea Adventure 80

Owner: McLangLLC, San Diego, CA. More information available from US FCC via Universal Licensing System and Coast Guard Vessel Documentation Center.

Last reported at 2018-Jun-15 00:04 UTC. Time now 2018-Jun-25 01:44 UTC.
Position N 32°08' W 117°48'.
Warning: this ship's position is 10 days out of date.

Length 22 m.

Type: Wing in ground effect craft. MMSI: 367441140.

Date/timePositionNaut miles runAvg speedWind from/ knotsBaromVisibWave heightAir tempDewpointWater temp
2018-Jun-15 00:04N 32°08' W 117°48'0 7.7
2018-Jun-15 00:00N 32°08' W 117°48'2 3.9
2018-Jun-14 23:27N 32°08' W 117°51'1 0.5
2018-Jun-14 21:29N 32°09' W 117°51'1 1.9
2018-Jun-14 20:54N 32°09' W 117°52'3 1.6
2018-Jun-14 19:06N 32°12' W 117°50'1 2.4
2018-Jun-14 18:39N 32°12' W 117°49'0 2.3
2018-Jun-14 18:29N 32°12' W 117°48'3 3.2
2018-Jun-14 17:31N 32°12' W 117°45'0 0.0
2018-Jun-14 17:30N 32°12' W 117°45'1 1.3
2018-Jun-14 16:20N 32°13' W 117°43'4 1.0
2018-Jun-14 12:33N 32°13' W 117°39'0 2.4
2018-Jun-14 12:29N 32°13' W 117°39'1 1.0
2018-Jun-14 11:13N 32°14' W 117°40'2 0.4
2018-Jun-14 05:40N 32°15' W 117°37'0 0.3
2018-Jun-14 05:27N 32°15' W 117°37'1 0.6
2018-Jun-14 03:20N 32°15' W 117°39'4 0.8
2018-Jun-13 22:22N 32°16' W 117°35'1 2.1
2018-Jun-13 22:00N 32°16' W 117°35'0 1.0
2018-Jun-13 21:30N 32°16' W 117°35'11 5.2
2018-Jun-13 19:19N 32°14' W 117°49'2 5.3
2018-Jun-13 18:57N 32°14' W 117°51'3 3.4
2018-Jun-13 18:00N 32°11' W 117°50'0 0.2
2018-Jun-13 17:30N 32°11' W 117°50'1 0.9
2018-Jun-13 16:42N 32°10' W 117°51'1 5.1
2018-Jun-13 16:25N 32°11' W 117°52'1 0.7
2018-Jun-13 14:48N 32°11' W 117°51'1 3.5
2018-Jun-13 14:28N 32°12' W 117°50'1 2.2
2018-Jun-13 14:00N 32°11' W 117°50'0 0.3
2018-Jun-13 13:30N 32°11' W 117°50'0 0.2
2018-Jun-13 13:00N 32°11' W 117°50'  
2018-Jun-09 23:52N 32°01' W 117°35'1 3.1
2018-Jun-09 23:29N 31°60' W 117°35'121 5.5
2018-Jun-09 01:31N 30°02' W 117°03'0 4.8
2018-Jun-09 01:30N 30°02' W 117°03'  

Dump ship's entire track history